Time;durP1;ratioP1;P1;durP2;ratioP2;P2;SDS_P1;SDS_P2;PMS_P1;PMS_P2;Temp;Humidity;BMP_temperature;BMP_pressure;BME280_temperature;BME280_humidity;BME280_pressure;Samples;Min_cycle;Max_cycle;Signal;HPM_P1;HPM_P2
2022/06/13 00:00:40;;;;;;;6.43;1.87;;;18.80;1.00;;;;;;5061439;28;20436;-79
2022/06/13 00:03:07;;;;;;;11.77;2.90;;;18.80;1.00;;;;;;5064391;28;20571;-79
2022/06/13 00:05:36;;;;;;;7.10;2.20;;;18.80;1.00;;;;;;5066758;28;20464;-79
2022/06/13 00:08:04;;;;;;;8.73;2.77;;;18.80;1.00;;;;;;5061310;28;20545;-79
2022/06/13 00:10:30;;;;;;;8.07;2.80;;;18.80;1.00;;;;;;5064477;28;20845;-78
2022/06/13 00:12:57;;;;;;;10.43;3.10;;;18.80;1.00;;;;;;5063213;28;20482;-78
2022/06/13 00:15:26;;;;;;;7.23;3.10;;;18.70;1.00;;;;;;5063551;28;20455;-78
2022/06/13 00:17:52;;;;;;;9.77;2.53;;;18.70;1.00;;;;;;5062636;28;20863;-78
2022/06/13 00:20:19;;;;;;;7.20;2.23;;;18.70;1.00;;;;;;5062021;28;20472;-77
2022/06/13 00:22:46;;;;;;;7.70;2.50;;;18.70;1.00;;;;;;5061179;28;20474;-78
2022/06/13 00:25:16;;;;;;;8.50;2.77;;;18.60;1.00;;;;;;5063997;28;20450;-78
2022/06/13 00:27:43;;;;;;;8.00;2.63;;;18.60;1.00;;;;;;5064494;28;20470;-78
2022/06/13 00:30:12;;;;;;;7.80;2.50;;;18.60;1.00;;;;;;5061981;28;20470;-79
2022/06/13 00:32:40;;;;;;;7.40;2.30;;;18.50;1.00;;;;;;5067972;28;20470;-79
2022/06/13 00:35:08;;;;;;;8.30;2.57;;;18.50;1.00;;;;;;5064665;28;20550;-78
2022/06/13 00:37:35;;;;;;;8.10;2.53;;;18.50;1.00;;;;;;5066986;28;20853;-79
2022/06/13 00:40:02;;;;;;;8.00;2.40;;;18.50;1.00;;;;;;5062683;28;20542;-78
2022/06/13 00:42:29;;;;;;;9.90;2.73;;;18.50;1.00;;;;;;5063473;28;20483;-79
2022/06/13 00:45:09;;;;;;;8.37;2.23;;;18.50;1.00;;;;;;5059394;28;20472;-78
2022/06/13 00:47:42;;;;;;;8.10;2.57;;;18.50;1.00;;;;;;5059662;28;20546;-78
2022/06/13 00:50:13;;;;;;;9.10;2.40;;;18.40;1.00;;;;;;5062406;28;20467;-78
2022/06/13 00:52:46;;;;;;;8.93;2.87;;;18.40;1.00;;;;;;5063047;28;20498;-78
2022/06/13 00:55:17;;;;;;;9.33;2.93;;;18.40;1.00;;;;;;5059873;28;20997;-79
2022/06/13 00:57:44;;;;;;;7.63;2.70;;;18.40;1.00;;;;;;5055008;28;20506;-79
2022/06/13 01:00:14;;;;;;;7.70;2.40;;;18.30;1.00;;;;;;5063459;28;20555;-78
2022/06/13 01:02:46;;;;;;;10.90;2.43;;;18.30;1.00;;;;;;5068340;28;20557;-78
2022/06/13 01:05:17;;;;;;;6.63;2.10;;;18.30;1.00;;;;;;5067073;28;20532;-79
2022/06/13 01:07:46;;;;;;;7.80;2.30;;;18.20;1.00;;;;;;5062713;28;21029;-78
2022/06/13 01:12:57;;;;;;;8.27;2.70;;;18.00;1.00;;;;;;5042702;28;20931;-79
2022/06/13 01:15:41;;;;;;;7.73;2.30;;;18.00;1.00;;;;;;5060341;28;20458;-77
2022/06/13 01:18:20;;;;;;;8.33;2.40;;;17.90;1.00;;;;;;5060851;28;20447;-79
2022/06/13 01:21:00;;;;;;;8.00;2.80;;;17.90;1.00;;;;;;5058130;28;20489;-78
2022/06/13 01:24:12;;;;;;;7.30;2.60;;;17.90;1.00;;;;;;5060039;28;20468;-78
2022/06/13 01:27:11;;;;;;;8.10;2.50;;;17.80;1.00;;;;;;5062875;28;20470;-78
2022/06/13 01:29:53;;;;;;;10.30;2.67;;;17.80;1.00;;;;;;5061143;28;20588;-79
2022/06/13 01:32:51;;;;;;;8.53;2.80;;;17.70;1.00;;;;;;5050808;28;20957;-79
2022/06/13 01:35:29;;;;;;;9.40;3.40;;;17.70;1.00;;;;;;5061503;28;20470;-78
2022/06/13 01:38:12;;;;;;;8.17;3.07;;;17.70;1.00;;;;;;5058778;28;20595;-79
2022/06/13 01:40:52;;;;;;;9.00;2.40;;;17.70;1.00;;;;;;5059826;28;21018;-78
2022/06/13 01:43:26;;;;;;;9.17;2.50;;;17.70;1.00;;;;;;5066439;28;20460;-79
2022/06/13 01:46:01;;;;;;;8.03;3.00;;;17.70;1.00;;;;;;5060339;28;21077;-80
2022/06/13 01:48:36;;;;;;;10.83;3.00;;;17.70;1.00;;;;;;5061235;28;20456;-79
2022/06/13 01:51:14;;;;;;;7.70;2.50;;;17.60;1.00;;;;;;5060329;28;20459;-79
2022/06/13 01:53:48;;;;;;;8.80;2.90;;;17.60;1.00;;;;;;5059979;28;20448;-78
2022/06/13 01:56:18;;;;;;;10.07;3.10;;;17.50;1.00;;;;;;5062789;28;20504;-80
2022/06/13 01:58:54;;;;;;;8.17;3.27;;;17.50;1.00;;;;;;5063081;28;20451;-79
2022/06/13 02:01:27;;;;;;;8.77;3.00;;;17.50;1.00;;;;;;5064584;28;20552;-78
2022/06/13 02:04:03;;;;;;;8.50;3.20;;;17.40;1.00;;;;;;5063819;28;20875;-79
2022/06/13 02:06:33;;;;;;;9.60;2.93;;;17.40;1.00;;;;;;5059407;28;20571;-80
2022/06/13 02:09:03;;;;;;;8.60;3.17;;;17.40;1.00;;;;;;5058934;28;20444;-79
2022/06/13 02:11:34;;;;;;;10.07;2.70;;;17.40;1.00;;;;;;5062958;28;20819;-79
2022/06/13 02:14:07;;;;;;;11.17;2.93;;;17.30;1.00;;;;;;5059826;28;20475;-79
2022/06/13 02:16:38;;;;;;;9.93;3.53;;;17.30;1.00;;;;;;5057973;28;20468;-79
2022/06/13 02:19:24;;;;;;;9.43;3.00;;;17.30;1.00;;;;;;5060395;28;20449;-79
2022/06/13 02:21:55;;;;;;;9.00;2.90;;;17.20;1.00;;;;;;5059499;28;20469;-79
2022/06/13 02:24:25;;;;;;;8.47;3.13;;;17.20;1.00;;;;;;5063036;28;21061;-79
2022/06/13 02:26:57;;;;;;;10.93;3.30;;;17.20;1.00;;;;;;5062791;28;20513;-78
2022/06/13 02:29:29;;;;;;;9.40;2.90;;;17.10;1.00;;;;;;5061408;28;20453;-79
2022/06/13 02:32:09;;;;;;;9.07;3.37;;;17.10;1.00;;;;;;5063615;28;20558;-79
2022/06/13 02:34:41;;;;;;;10.20;3.67;;;17.00;1.00;;;;;;5070349;28;20969;-79
2022/06/13 02:37:27;;;;;;;7.60;3.17;;;17.00;1.00;;;;;;5063871;28;20482;-79
2022/06/13 02:40:02;;;;;;;8.80;3.33;;;17.00;1.00;;;;;;5062611;28;21283;-78
2022/06/13 02:42:32;;;;;;;9.70;3.90;;;16.90;1.00;;;;;;5065677;28;20832;-77
2022/06/13 02:45:04;;;;;;;8.23;3.00;;;16.90;1.00;;;;;;5064958;28;20473;-77
2022/06/13 02:47:36;;;;;;;8.90;2.93;;;16.90;1.00;;;;;;5061664;28;20478;-76
2022/06/13 02:50:09;;;;;;;9.27;3.87;;;16.90;1.00;;;;;;5069678;28;20456;-77
2022/06/13 02:52:42;;;;;;;9.63;3.47;;;16.90;1.00;;;;;;5059980;28;20483;-79
2022/06/13 02:55:14;;;;;;;7.87;3.23;;;16.90;1.00;;;;;;5062074;28;20534;-78
2022/06/13 02:58:02;;;;;;;9.90;3.80;;;17.00;1.00;;;;;;5062700;28;20468;-76
2022/06/13 03:00:45;;;;;;;9.77;2.93;;;17.00;1.00;;;;;;5065321;28;21222;-78
2022/06/13 03:03:20;;;;;;;11.10;4.40;;;17.00;1.00;;;;;;5064327;28;20468;-78
2022/06/13 03:05:54;;;;;;;10.90;3.60;;;17.10;1.00;;;;;;5064438;28;20486;-76
2022/06/13 03:08:33;;;;;;;10.50;4.07;;;17.20;1.00;;;;;;5064587;28;20863;-77
2022/06/13 03:11:08;;;;;;;9.80;3.27;;;17.30;1.00;;;;;;5066792;28;21087;-77
2022/06/13 03:13:44;;;;;;;11.53;3.43;;;17.40;1.00;;;;;;5067781;28;20463;-77
2022/06/13 03:16:19;;;;;;;7.87;3.00;;;17.40;1.00;;;;;;5065685;28;20452;-77
2022/06/13 03:18:49;;;;;;;7.97;3.70;;;17.40;1.00;;;;;;5062776;28;20471;-77
2022/06/13 03:21:27;;;;;;;11.57;3.70;;;17.40;1.00;;;;;;5064206;28;20456;-77
2022/06/13 03:23:58;;;;;;;10.07;3.67;;;17.40;1.00;;;;;;5063117;28;20802;-78
2022/06/13 03:26:30;;;;;;;12.97;4.30;;;17.40;1.00;;;;;;5066742;28;21010;-77
2022/06/13 03:29:01;;;;;;;8.33;3.47;;;17.40;1.00;;;;;;5064313;28;20930;-78
2022/06/13 03:31:34;;;;;;;12.63;3.60;;;17.40;1.00;;;;;;5065080;28;20483;-77
2022/06/13 03:34:04;;;;;;;13.10;3.83;;;17.40;1.00;;;;;;5061998;28;20467;-77
2022/06/13 03:36:36;;;;;;;9.43;3.60;;;17.30;1.00;;;;;;5059514;28;20476;-77
2022/06/13 03:39:13;;;;;;;10.90;3.57;;;17.30;1.00;;;;;;5060674;28;20467;-77
2022/06/13 03:41:47;;;;;;;12.37;3.93;;;17.30;1.00;;;;;;5059886;28;20495;-77
2022/06/13 03:44:18;;;;;;;11.93;3.90;;;17.30;1.00;;;;;;5064604;28;20478;-78
2022/06/13 03:46:52;;;;;;;8.97;4.33;;;17.20;1.00;;;;;;5047925;28;20464;-78
2022/06/13 03:49:25;;;;;;;9.37;3.73;;;17.20;1.00;;;;;;5060724;28;20631;-77
2022/06/13 03:51:57;;;;;;;13.23;3.70;;;17.10;1.00;;;;;;5061171;28;20483;-78
2022/06/13 03:54:28;;;;;;;10.60;4.00;;;17.10;1.00;;;;;;5063312;28;20459;-77
2022/06/13 03:57:00;;;;;;;13.67;3.60;;;17.00;1.00;;;;;;5065691;28;20534;-78
2022/06/13 03:59:33;;;;;;;12.07;3.80;;;17.00;1.00;;;;;;5066670;28;20476;-77
2022/06/13 04:02:03;;;;;;;8.53;4.37;;;16.90;1.00;;;;;;5053934;28;20467;-78
2022/06/13 04:04:42;;;;;;;11.27;4.13;;;16.90;1.00;;;;;;5054932;28;20490;-77
2022/06/13 04:07:11;;;;;;;9.40;3.93;;;16.90;1.00;;;;;;5060598;28;20460;-77
2022/06/13 04:09:42;;;;;;;11.87;5.73;;;16.80;1.00;;;;;;5058526;28;20472;-77
2022/06/13 04:12:30;;;;;;;9.57;4.20;;;16.80;1.00;;;;;;5059157;28;20483;-78
2022/06/13 04:15:20;;;;;;;10.00;3.70;;;16.80;1.00;;;;;;5056439;28;20447;-77
2022/06/13 04:17:54;;;;;;;10.03;3.80;;;16.70;1.00;;;;;;5073547;28;20527;-78
2022/06/13 04:20:27;;;;;;;9.73;3.93;;;16.60;1.00;;;;;;5060268;28;20466;-78
2022/06/13 04:23:00;;;;;;;14.03;4.23;;;16.60;1.00;;;;;;5061016;28;20546;-77
2022/06/13 04:25:34;;;;;;;10.70;4.80;;;16.60;1.00;;;;;;5062452;28;20455;-77
2022/06/13 04:28:05;;;;;;;9.70;4.60;;;16.60;1.00;;;;;;5064982;28;21158;-76
2022/06/13 04:30:33;;;;;;;8.20;3.93;;;16.60;1.00;;;;;;5066929;28;20673;-76
2022/06/13 04:33:05;;;;;;;11.83;5.27;;;16.50;1.00;;;;;;5062589;28;20434;-76
2022/06/13 04:35:34;;;;;;;11.23;4.40;;;16.50;1.00;;;;;;5059384;28;21275;-76
2022/06/13 04:38:05;;;;;;;8.67;3.97;;;16.50;1.00;;;;;;5061234;28;20463;-77
2022/06/13 04:40:35;;;;;;;10.50;3.93;;;16.50;1.00;;;;;;5060976;28;20551;-77
2022/06/13 04:43:07;;;;;;;11.40;4.50;;;16.50;1.00;;;;;;5065614;28;20461;-78
2022/06/13 04:45:42;;;;;;;12.63;4.63;;;16.50;1.00;;;;;;5061155;28;20522;-78
2022/06/13 04:48:14;;;;;;;11.77;4.60;;;16.50;1.00;;;;;;5062408;28;20463;-77
2022/06/13 04:50:46;;;;;;;10.97;4.00;;;16.50;1.00;;;;;;5060877;28;20455;-77
2022/06/13 04:53:19;;;;;;;13.17;4.30;;;16.60;1.00;;;;;;5063921;28;20483;-76
2022/06/13 04:55:49;;;;;;;10.17;4.63;;;16.70;1.00;;;;;;5060771;28;20448;-76
2022/06/13 04:58:23;;;;;;;14.80;6.97;;;16.70;1.00;;;;;;5067604;28;20463;-77
2022/06/13 05:00:53;;;;;;;10.63;4.23;;;16.80;1.00;;;;;;5065433;28;20468;-77
2022/06/13 05:03:26;;;;;;;9.40;3.57;;;16.90;1.00;;;;;;5053806;28;20853;-76
2022/06/13 05:05:57;;;;;;;8.60;3.43;;;16.90;1.00;;;;;;5051122;28;21204;-77
2022/06/13 05:08:32;;;;;;;13.87;6.30;;;16.90;1.00;;;;;;5058987;28;20540;-78
2022/06/13 05:11:08;;;;;;;15.83;3.83;;;17.00;1.00;;;;;;5062809;28;20487;-77
2022/06/13 05:13:34;;;;;;;10.70;4.87;;;17.10;1.00;;;;;;5058731;28;20487;-77
2022/06/13 05:16:10;;;;;;;11.00;3.53;;;17.10;1.00;;;;;;5060711;28;20894;-78
2022/06/13 05:18:56;;;;;;;11.30;3.97;;;17.00;1.00;;;;;;5058353;28;21167;-78
2022/06/13 05:21:40;;;;;;;9.67;3.70;;;17.00;1.00;;;;;;5063767;28;20510;-78
2022/06/13 05:24:49;;;;;;;9.83;3.47;;;17.00;1.00;;;;;;5062597;28;20550;-77
2022/06/13 05:27:17;;;;;;;10.67;3.90;;;17.20;1.00;;;;;;5027852;28;20472;-78
2022/06/13 05:29:44;;;;;;;13.03;3.50;;;17.30;1.00;;;;;;5064613;28;20472;-78
2022/06/13 05:32:15;;;;;;;9.10;3.87;;;17.40;1.00;;;;;;5063721;28;20501;-78
2022/06/13 05:34:43;;;;;;;14.70;6.23;;;17.40;1.00;;;;;;5060239;28;20452;-77
2022/06/13 05:37:13;;;;;;;8.30;3.50;;;17.50;1.00;;;;;;5063399;28;22708;-78
2022/06/13 05:39:39;;;;;;;10.50;4.17;;;17.50;1.00;;;;;;5064980;28;20458;-77
2022/06/13 05:42:08;;;;;;;10.40;4.67;;;17.50;1.00;;;;;;5061360;28;20499;-77
2022/06/13 05:44:36;;;;;;;10.57;4.70;;;17.50;1.00;;;;;;5063255;28;20452;-81
2022/06/13 05:47:03;;;;;;;10.80;4.23;;;17.60;1.00;;;;;;5065584;28;20564;-80
2022/06/13 05:49:31;;;;;;;12.40;5.60;;;17.70;1.00;;;;;;5066937;28;20440;-81
2022/06/13 05:51:58;;;;;;;10.87;4.30;;;17.70;1.00;;;;;;5062377;28;20688;-80
2022/06/13 05:54:24;;;;;;;10.70;4.23;;;17.80;1.00;;;;;;5064083;28;20463;-79
2022/06/13 05:56:51;;;;;;;14.23;5.50;;;17.80;1.00;;;;;;5066935;28;20450;-80
2022/06/13 05:59:18;;;;;;;8.83;3.73;;;17.80;1.00;;;;;;5068254;28;20857;-78
2022/06/13 06:01:47;;;;;;;11.87;4.60;;;17.90;1.00;;;;;;5062579;28;20467;-77
2022/06/13 06:04:16;;;;;;;11.33;4.70;;;18.00;1.00;;;;;;5064793;28;21021;-77
2022/06/13 06:06:43;;;;;;;12.83;4.73;;;18.10;1.00;;;;;;5063857;28;20480;-77
2022/06/13 06:09:14;;;;;;;13.93;4.03;;;18.20;1.00;;;;;;5061969;28;20466;-76
2022/06/13 06:11:41;;;;;;;10.10;4.20;;;18.30;1.00;;;;;;5061466;28;20476;-76
2022/06/13 06:14:08;;;;;;;10.03;3.57;;;18.40;1.00;;;;;;5062611;28;20458;-76
2022/06/13 06:16:36;;;;;;;10.50;3.77;;;18.60;1.00;;;;;;5060899;28;20494;-77
2022/06/13 06:19:04;;;;;;;8.63;3.40;;;18.60;1.00;;;;;;5064246;28;21701;-78
2022/06/13 06:21:31;;;;;;;9.67;3.73;;;18.60;1.00;;;;;;5061060;28;20862;-77
2022/06/13 06:23:58;;;;;;;9.90;2.97;;;18.50;1.00;;;;;;5062091;28;20590;-77
2022/06/13 06:26:27;;;;;;;8.50;2.80;;;18.70;1.00;;;;;;5064769;28;20467;-78
2022/06/13 06:28:55;;;;;;;6.97;2.60;;;18.90;1.00;;;;;;5064136;28;20519;-79
2022/06/13 06:31:22;;;;;;;11.70;3.30;;;19.20;1.00;;;;;;5058468;28;20567;-78
2022/06/13 06:33:49;;;;;;;8.50;2.50;;;19.20;1.00;;;;;;5070773;28;20471;-81
2022/06/13 06:36:18;;;;;;;8.43;2.37;;;19.00;1.00;;;;;;5073176;28;20438;-77
2022/06/13 06:38:47;;;;;;;9.90;2.80;;;18.70;1.00;;;;;;5069802;28;20582;-79
2022/06/13 06:41:14;;;;;;;7.90;2.20;;;18.60;1.00;;;;;;5065440;28;20485;-78
2022/06/13 06:43:42;;;;;;;9.43;2.30;;;18.60;1.00;;;;;;5063116;28;20546;-78
2022/06/13 06:46:09;;;;;;;9.00;2.47;;;18.70;1.00;;;;;;5060716;28;20467;-78
2022/06/13 06:48:37;;;;;;;8.70;3.03;;;18.60;1.00;;;;;;5059248;28;20557;-77
2022/06/13 06:51:07;;;;;;;9.60;3.60;;;18.60;1.00;;;;;;5064108;28;20468;-77
2022/06/13 07:01:51;;;;;;;7.93;2.40;;;18.30;1.00;;;;;;5004816;28;20466;-79
2022/06/13 07:04:21;;;;;;;6.97;2.67;;;18.30;1.00;;;;;;5051316;28;20459;-78
2022/06/13 07:06:47;;;;;;;8.30;2.83;;;18.50;1.00;;;;;;5061157;28;20545;-80
2022/06/13 07:09:16;;;;;;;6.87;2.67;;;18.70;1.00;;;;;;5066370;28;20452;-80
2022/06/13 07:11:55;;;;;;;7.07;2.57;;;19.00;1.00;;;;;;5063362;28;20550;-77
2022/06/13 07:14:25;;;;;;;6.30;1.90;;;18.90;1.00;;;;;;5059352;28;20470;-80
2022/06/13 07:16:52;;;;;;;6.77;2.17;;;18.90;1.00;;;;;;5064415;28;20466;-81
2022/06/13 07:19:20;;;;;;;9.67;4.30;;;18.70;1.00;;;;;;5060192;28;20470;-79
2022/06/13 07:21:47;;;;;;;8.40;2.17;;;18.80;1.00;;;;;;5067073;28;20593;-80
2022/06/13 07:24:16;;;;;;;7.10;2.40;;;18.90;1.00;;;;;;5067121;28;20451;-79
2022/06/13 07:26:43;;;;;;;7.63;2.23;;;18.90;1.00;;;;;;5063660;28;20448;-80
2022/06/13 07:29:11;;;;;;;7.50;2.00;;;19.00;1.00;;;;;;5065391;28;21625;-80
2022/06/13 07:31:40;;;;;;;9.43;2.93;;;19.20;1.00;;;;;;5064527;28;20501;-81
2022/06/13 07:34:11;;;;;;;7.50;2.47;;;19.50;1.00;;;;;;5063918;28;20551;-80
2022/06/13 07:36:38;;;;;;;8.20;2.30;;;19.70;1.00;;;;;;5064396;28;20873;-80
2022/06/13 07:39:05;;;;;;;7.77;2.17;;;19.80;1.00;;;;;;5065219;28;20248;-80
2022/06/13 07:41:34;;;;;;;7.83;3.20;;;19.80;1.00;;;;;;5066912;28;20475;-80
2022/06/13 07:44:02;;;;;;;6.87;2.30;;;19.80;1.00;;;;;;5064133;28;20484;-80
2022/06/13 07:46:31;;;;;;;7.37;2.43;;;19.70;1.00;;;;;;5065694;28;20452;-80
2022/06/13 07:48:58;;;;;;;6.70;2.13;;;19.50;1.00;;;;;;5055358;28;20904;-80
2022/06/13 07:51:26;;;;;;;7.70;2.17;;;19.40;1.00;;;;;;5066805;28;20462;-80
2022/06/13 07:53:54;;;;;;;9.70;3.33;;;19.40;1.00;;;;;;5064267;28;20451;-79
2022/06/13 07:56:23;;;;;;;6.50;2.07;;;19.40;1.00;;;;;;5059928;28;21413;-80
2022/06/13 07:58:53;;;;;;;6.50;2.10;;;19.50;1.00;;;;;;5065550;28;22127;-80
2022/06/13 08:01:21;;;;;;;6.50;1.97;;;19.40;1.00;;;;;;5059622;28;20467;-80
2022/06/13 08:03:49;;;;;;;9.37;2.33;;;19.40;1.00;;;;;;5067617;28;20451;-80
2022/06/13 08:06:16;;;;;;;7.23;2.00;;;19.40;1.00;;;;;;5066517;28;20463;-79
2022/06/13 08:08:46;;;;;;;7.10;2.33;;;19.50;1.00;;;;;;5067916;28;20442;-80
2022/06/13 08:11:15;;;;;;;8.10;2.37;;;19.70;1.00;;;;;;5065702;28;20486;-80
2022/06/13 08:13:43;;;;;;;9.10;2.60;;;19.90;1.00;;;;;;5064586;28;20439;-80
2022/06/13 08:16:12;;;;;;;9.27;3.10;;;20.00;1.00;;;;;;5062725;28;20980;-79
2022/06/13 08:18:43;;;;;;;8.93;2.40;;;20.20;1.00;;;;;;5066736;28;20535;-80
2022/06/13 08:21:11;;;;;;;6.70;2.90;;;20.30;1.00;;;;;;5061842;28;20920;-80
2022/06/13 08:23:38;;;;;;;7.93;2.30;;;20.30;1.00;;;;;;5063817;28;20436;-80
2022/06/13 08:26:06;;;;;;;8.60;2.50;;;20.40;1.00;;;;;;5067737;28;20459;-81
2022/06/13 08:28:34;;;;;;;7.83;2.47;;;20.40;1.00;;;;;;5063783;28;20476;-80
2022/06/13 08:31:05;;;;;;;7.50;2.30;;;20.30;1.00;;;;;;5062408;28;20468;-78
2022/06/13 08:33:34;;;;;;;6.97;2.20;;;20.10;1.00;;;;;;5062936;28;20439;-80
2022/06/13 08:36:01;;;;;;;5.83;2.07;;;20.10;1.00;;;;;;5065908;28;20459;-80
2022/06/13 08:38:29;;;;;;;6.90;2.30;;;20.10;1.00;;;;;;5064248;28;20467;-80
2022/06/13 08:41:05;;;;;;;7.90;2.50;;;20.10;1.00;;;;;;5065218;28;20544;-82
2022/06/13 08:44:07;;;;;;;9.27;2.93;;;19.90;1.00;;;;;;5062684;28;21040;-79
2022/06/13 08:46:43;;;;;;;6.83;2.20;;;19.80;1.00;;;;;;5068729;28;20496;-79
2022/06/13 08:49:20;;;;;;;8.53;2.20;;;19.80;1.00;;;;;;5064005;28;20458;-79
2022/06/13 08:51:49;;;;;;;11.07;2.77;;;19.80;1.00;;;;;;5066045;28;21096;-80
2022/06/13 08:54:21;;;;;;;6.30;1.80;;;19.90;1.00;;;;;;5064149;28;20454;-79
2022/06/13 08:56:50;;;;;;;8.77;2.30;;;20.30;1.00;;;;;;5064579;28;20464;-78
2022/06/13 08:59:23;;;;;;;9.60;2.40;;;20.80;1.00;;;;;;5066689;28;20554;-79
2022/06/13 09:01:53;;;;;;;7.83;2.47;;;21.50;1.00;;;;;;5062014;28;20468;-79
2022/06/13 09:04:27;;;;;;;7.17;2.03;;;21.80;1.00;;;;;;5065400;28;20431;-79
2022/06/13 09:07:02;;;;;;;9.50;2.40;;;22.10;1.00;;;;;;5064957;28;20459;-81
2022/06/13 09:09:35;;;;;;;13.10;3.43;;;22.10;1.00;;;;;;5060839;28;20546;-80
2022/06/13 09:12:07;;;;;;;7.87;2.53;;;22.10;1.00;;;;;;5067657;28;20491;-81
2022/06/13 09:14:36;;;;;;;7.10;2.30;;;22.10;1.00;;;;;;5064920;28;20487;-80
2022/06/13 09:17:13;;;;;;;8.60;2.90;;;22.10;1.00;;;;;;5066887;28;20455;-79
2022/06/13 09:19:50;;;;;;;9.13;2.93;;;22.10;1.00;;;;;;5063211;28;20530;-80
2022/06/13 09:22:23;;;;;;;8.90;2.60;;;22.10;1.00;;;;;;5065135;28;20617;-79
2022/06/13 09:24:59;;;;;;;8.73;4.00;;;22.30;1.00;;;;;;5049936;28;20459;-80
2022/06/13 09:27:29;;;;;;;8.40;3.03;;;22.50;1.00;;;;;;5065858;28;20449;-79
2022/06/13 09:30:02;;;;;;;6.27;2.30;;;22.80;1.00;;;;;;5061836;28;20550;-80
2022/06/13 09:32:37;;;;;;;8.13;3.57;;;23.00;1.00;;;;;;5061952;28;20614;-79
2022/06/13 09:35:13;;;;;;;8.97;2.73;;;23.00;1.00;;;;;;5064030;28;20463;-79
2022/06/13 09:37:48;;;;;;;8.73;3.00;;;22.60;1.00;;;;;;5064210;28;20451;-77
2022/06/13 09:40:18;;;;;;;8.17;3.20;;;22.00;1.00;;;;;;5066350;28;20463;-77
2022/06/13 09:42:59;;;;;;;8.13;3.10;;;21.50;1.00;;;;;;5065866;28;20955;-78
2022/06/13 09:45:49;;;;;;;7.77;3.43;;;21.60;1.00;;;;;;5063849;28;20463;-78
2022/06/13 09:48:33;;;;;;;7.23;2.23;;;22.60;1.00;;;;;;5061031;28;20460;-77
2022/06/13 09:51:18;;;;;;;7.97;2.53;;;23.70;1.00;;;;;;5059927;28;20471;-78
2022/06/13 09:53:55;;;;;;;8.00;2.10;;;24.50;1.00;;;;;;5062466;28;20478;-80
2022/06/13 09:56:32;;;;;;;9.10;3.87;;;25.30;1.00;;;;;;5063432;28;20465;-79
2022/06/13 09:59:14;;;;;;;8.57;2.40;;;26.00;1.00;;;;;;5064830;28;20559;-78
2022/06/13 10:01:46;;;;;;;7.67;2.53;;;27.00;1.00;;;;;;5065703;28;20526;-78
2022/06/13 10:04:19;;;;;;;6.97;2.07;;;27.80;1.00;;;;;;5066336;28;20475;-78
2022/06/13 10:06:57;;;;;;;6.50;2.23;;;28.80;1.00;;;;;;5066011;28;20902;-78
2022/06/13 10:09:39;;;;;;;8.63;2.67;;;29.40;1.00;;;;;;5063730;28;20486;-79
2022/06/13 10:12:14;;;;;;;6.43;2.23;;;29.80;1.00;;;;;;5064409;28;20454;-79
2022/06/13 10:14:57;;;;;;;6.60;2.10;;;30.00;1.00;;;;;;5066739;28;20509;-78
2022/06/13 10:17:46;;;;;;;7.77;2.57;;;29.40;1.00;;;;;;5068368;28;20455;-79
2022/06/13 10:20:22;;;;;;;6.90;2.40;;;29.60;1.00;;;;;;5064110;28;20500;-79
2022/06/13 10:22:59;;;;;;;6.40;2.40;;;29.70;1.00;;;;;;5060571;28;20490;-79
2022/06/13 10:25:41;;;;;;;8.17;2.30;;;30.30;1.00;;;;;;5065563;28;20477;-78
2022/06/13 10:28:22;;;;;;;6.73;2.77;;;31.40;1.00;;;;;;5063689;28;20455;-78
2022/06/13 10:30:57;;;;;;;6.60;2.40;;;32.00;1.00;;;;;;5060843;28;20465;-78
2022/06/13 10:33:35;;;;;;;8.50;2.83;;;32.10;1.00;;;;;;5065204;28;20556;-79
2022/06/13 10:36:13;;;;;;;9.50;2.50;;;32.00;1.00;;;;;;5060466;28;20459;-79
2022/06/13 10:38:54;;;;;;;6.03;2.23;;;32.20;1.00;;;;;;5065684;28;20869;-79
2022/06/13 10:41:23;;;;;;;6.90;2.27;;;32.40;1.00;;;;;;5062811;28;20562;-79
2022/06/13 10:43:50;;;;;;;6.80;1.97;;;32.10;1.00;;;;;;5063183;28;20459;-79
2022/06/13 10:46:18;;;;;;;8.50;2.70;;;30.20;1.00;;;;;;5066363;28;20464;-80
2022/06/13 10:48:49;;;;;;;6.30;2.20;;;30.00;1.00;;;;;;5068404;28;20588;-80
2022/06/13 10:51:17;;;;;;;8.20;2.40;;;29.60;1.00;;;;;;5070743;28;20462;-80
2022/06/13 10:53:51;;;;;;;5.87;2.13;;;30.20;1.00;;;;;;5075145;28;20447;-80
2022/06/13 10:56:23;;;;;;;8.23;2.27;;;30.90;1.00;;;;;;5061473;28;20529;-80
2022/06/13 10:58:53;;;;;;;5.73;1.80;;;31.40;1.00;;;;;;5066275;28;20442;-79
2022/06/13 11:01:22;;;;;;;7.77;2.83;;;30.90;1.00;;;;;;5066602;28;20455;-79
2022/06/13 11:04:18;;;;;;;7.93;2.80;;;29.10;1.00;;;;;;5058551;28;20494;-79
2022/06/13 11:06:47;;;;;;;5.70;1.77;;;29.00;1.00;;;;;;5071922;28;20845;-78
2022/06/13 11:09:24;;;;;;;5.60;1.97;;;30.80;1.00;;;;;;5066460;28;20909;-77
2022/06/13 11:11:56;;;;;;;6.63;1.87;;;31.90;1.00;;;;;;5061863;28;20487;-77
2022/06/13 11:22:37;;;;;;;6.20;2.20;;;32.40;1.00;;;;;;5064153;28;24745;-78
2022/06/13 11:23:10;;;;;;;5.27;1.97;;;33.70;1.00;;;;;;5072642;28;20499;-78
2022/06/13 11:25:39;;;;;;;5.30;1.97;;;33.60;1.00;;;;;;5068217;28;20463;-81
2022/06/13 11:28:10;;;;;;;6.57;2.00;;;33.30;1.00;;;;;;5068107;28;21287;-77
2022/06/13 11:30:43;;;;;;;7.30;2.30;;;33.50;1.00;;;;;;5066839;28;20546;-77
2022/06/13 11:33:37;;;;;;;5.97;2.10;;;34.00;1.00;;;;;;5066539;28;20475;-77
2022/06/13 11:36:22;;;;;;;6.03;2.20;;;35.00;1.00;;;;;;5046658;28;20460;-76
2022/06/13 11:38:55;;;;;;;4.50;1.60;;;35.50;1.00;;;;;;5066199;28;20468;-78
2022/06/13 11:41:29;;;;;;;6.47;2.13;;;35.30;1.00;;;;;;5063946;28;21216;-77
2022/06/13 11:44:04;;;;;;;5.73;1.60;;;35.70;1.00;;;;;;5065171;28;20684;-77
2022/06/13 11:46:39;;;;;;;6.07;2.20;;;34.80;1.00;;;;;;5062757;28;20461;-76
2022/06/13 11:49:23;;;;;;;6.43;1.90;;;34.90;1.00;;;;;;5064944;28;21063;-78
2022/06/13 11:51:54;;;;;;;4.47;2.03;;;35.60;1.00;;;;;;5061793;28;21399;-76
2022/06/13 11:54:24;;;;;;;5.10;1.93;;;35.60;1.00;;;;;;5066274;28;20754;-77
2022/06/13 11:57:18;;;;;;;5.87;2.10;;;35.50;1.00;;;;;;5066482;28;20546;-77
2022/06/13 11:59:47;;;;;;;6.10;2.47;;;36.30;1.00;;;;;;5058184;28;20517;-77
2022/06/13 12:02:18;;;;;;;5.53;2.03;;;35.90;1.00;;;;;;5064915;28;21008;-77
2022/06/13 12:04:47;;;;;;;6.17;1.83;;;33.60;1.00;;;;;;5067313;28;21003;-79
2022/06/13 12:07:24;;;;;;;5.63;2.60;;;33.40;1.00;;;;;;5066442;28;21179;-77
2022/06/13 12:09:56;;;;;;;6.80;2.37;;;34.10;1.00;;;;;;5067826;28;20486;-77
2022/06/13 12:12:26;;;;;;;5.53;1.97;;;34.10;1.00;;;;;;5066300;28;21044;-75
2022/06/13 12:14:54;;;;;;;6.20;2.57;;;32.60;1.00;;;;;;5068034;28;20520;-78
2022/06/13 12:17:27;;;;;;;6.70;3.23;;;30.50;1.00;;;;;;5064008;28;20547;-77
2022/06/13 12:20:02;;;;;;;6.83;2.53;;;28.70;1.00;;;;;;5062527;28;20954;-76
2022/06/13 12:22:38;;;;;;;9.53;2.17;;;27.20;1.00;;;;;;5066525;28;20517;-81
2022/06/13 12:25:14;;;;;;;13.73;3.63;;;25.70;1.00;;;;;;5070531;28;20455;-80
2022/06/13 12:27:50;;;;;;;8.93;2.90;;;24.10;1.00;;;;;;5067922;28;21027;-80
2022/06/13 12:30:28;;;;;;;12.30;3.90;;;23.20;1.00;;;;;;5072000;28;20861;-80
2022/06/13 12:33:06;;;;;;;10.03;3.10;;;22.80;1.00;;;;;;5072102;28;20442;-81
2022/06/13 12:35:58;;;;;;;9.43;2.93;;;22.40;1.00;;;;;;5069727;28;20454;-78
2022/06/13 12:38:44;;;;;;;7.73;2.40;;;21.80;1.00;;;;;;5063467;28;20466;-81
2022/06/13 12:41:25;;;;;;;12.50;3.17;;;21.40;1.00;;;;;;5064750;28;20479;-80
2022/06/13 12:44:20;;;;;;;11.93;2.80;;;21.10;1.00;;;;;;5079704;28;20511;-81
2022/06/13 12:47:02;;;;;;;7.33;2.33;;;21.00;1.00;;;;;;5066162;28;20946;-80
2022/06/13 12:49:58;;;;;;;6.90;2.23;;;21.00;1.00;;;;;;5069826;28;20541;-82
2022/06/13 12:52:41;;;;;;;8.97;2.13;;;21.00;1.00;;;;;;5064143;28;20443;-82
2022/06/13 12:55:29;;;;;;;7.60;1.97;;;21.40;1.00;;;;;;5066847;28;20459;-80
2022/06/13 12:58:21;;;;;;;7.20;1.87;;;23.00;1.00;;;;;;5059085;28;20463;-81
2022/06/13 13:00:53;;;;;;;8.07;2.37;;;25.20;1.00;;;;;;5063324;28;20608;-82
2022/06/13 13:03:56;;;;;;;7.03;1.70;;;26.40;1.00;;;;;;5063726;28;20487;-78
2022/06/13 13:06:32;;;;;;;4.93;1.57;;;26.60;1.00;;;;;;5064091;28;20456;-77
2022/06/13 13:09:19;;;;;;;6.33;1.80;;;25.90;1.00;;;;;;5065379;28;20460;-77
2022/06/13 13:12:05;;;;;;;6.20;2.20;;;25.10;1.00;;;;;;5066407;28;20545;-77
2022/06/13 13:14:40;;;;;;;5.23;1.57;;;25.10;1.00;;;;;;5061965;28;20483;-78
2022/06/13 13:17:21;;;;;;;5.93;1.90;;;25.50;1.00;;;;;;5061952;28;20466;-77
2022/06/13 13:19:57;;;;;;;8.90;1.70;;;26.40;1.00;;;;;;5064613;28;20502;-77
2022/06/13 13:22:29;;;;;;;6.23;2.17;;;27.50;1.00;;;;;;5062819;28;20590;-77
2022/06/13 13:25:18;;;;;;;5.40;1.90;;;27.60;1.00;;;;;;5059754;28;20524;-75
2022/06/13 13:27:51;;;;;;;6.47;1.73;;;27.40;1.00;;;;;;5063467;28;20452;-77
2022/06/13 13:30:21;;;;;;;8.20;2.40;;;26.80;1.00;;;;;;5061679;28;21020;-77
2022/06/13 13:33:08;;;;;;;8.50;2.30;;;26.00;1.00;;;;;;5064462;28;20455;-77
2022/06/13 13:35:42;;;;;;;6.37;2.23;;;24.80;1.00;;;;;;5062271;28;20990;-76
2022/06/13 13:38:16;;;;;;;9.20;2.67;;;23.80;1.00;;;;;;5065025;28;20454;-76
2022/06/13 13:40:48;;;;;;;8.00;2.77;;;23.50;1.00;;;;;;5061262;28;20930;-77
2022/06/13 13:43:26;;;;;;;8.00;2.27;;;24.30;1.00;;;;;;5059960;28;20547;-76
2022/06/13 13:45:57;;;;;;;8.20;2.30;;;26.60;1.00;;;;;;5064488;28;20943;-76